Lum, Michigan
Current Conditions -  °F | °C
As of 4:13 PM on Monday 22 Dec 2014 (Local Time) from KD95 Reporting Station
Overcast Overcast  
Wind Chill: 32°   Ceiling: 10000
Heat Index: 36°   Visibility: 10mi
Dew Point: 28°   Wind: 5mph
Humidity: 75%   Direction: 90°E
Pressure: 29.93"   Gusts: NA
Location:  43.0581°N, 83.167°W
Report Text: KD95 222113Z AUTO 09004KT 10SM OVC100 02/M02 A2993 RMK AO2 T00201020
Loading
Personal Weather Stations






























Interactive Weather Map New forecast layout! Learn more

10-Day Weather Forecast

Advertisements
Track Severe Weather on mobile